sensor_id;sensor_type;location;lat;lon;timestamp;P1;durP1;ratioP1;P2;durP2;ratioP2
16796;SDS011;8515;51.064;4.580;2022-09-01T00:01:09;7.65;;;2.60;;
16796;SDS011;8515;51.064;4.580;2022-09-01T00:03:42;5.32;;;2.00;;
16796;SDS011;8515;51.064;4.580;2022-09-01T00:06:12;6.55;;;1.95;;
16796;SDS011;8515;51.064;4.580;2022-09-01T00:08:40;5.47;;;2.00;;
16796;SDS011;8515;51.064;4.580;2022-09-01T00:11:07;8.65;;;2.38;;
16796;SDS011;8515;51.064;4.580;2022-09-01T00:13:35;5.05;;;2.08;;
16796;SDS011;8515;51.064;4.580;2022-09-01T00:16:02;2.67;;;1.70;;
16796;SDS011;8515;51.064;4.580;2022-09-01T00:18:30;5.38;;;2.40;;
16796;SDS011;8515;51.064;4.580;2022-09-01T00:20:57;4.32;;;2.05;;
16796;SDS011;8515;51.064;4.580;2022-09-01T00:23:24;3.42;;;1.80;;
16796;SDS011;8515;51.064;4.580;2022-09-01T00:25:52;7.32;;;1.90;;
16796;SDS011;8515;51.064;4.580;2022-09-01T00:28:19;3.97;;;1.90;;
16796;SDS011;8515;51.064;4.580;2022-09-01T00:30:47;6.22;;;2.05;;
16796;SDS011;8515;51.064;4.580;2022-09-01T00:33:14;5.65;;;1.75;;
16796;SDS011;8515;51.064;4.580;2022-09-01T00:35:42;3.00;;;1.60;;
16796;SDS011;8515;51.064;4.580;2022-09-01T00:38:09;4.40;;;1.80;;
16796;SDS011;8515;51.064;4.580;2022-09-01T00:40:36;4.45;;;1.80;;
16796;SDS011;8515;51.064;4.580;2022-09-01T00:43:10;7.43;;;2.03;;
16796;SDS011;8515;51.064;4.580;2022-09-01T00:45:39;4.68;;;1.75;;
16796;SDS011;8515;51.064;4.580;2022-09-01T00:48:08;3.30;;;1.65;;
16796;SDS011;8515;51.064;4.580;2022-09-01T00:50:35;6.65;;;2.22;;
16796;SDS011;8515;51.064;4.580;2022-09-01T00:53:03;4.32;;;2.10;;
16796;SDS011;8515;51.064;4.580;2022-09-01T00:55:32;2.80;;;1.75;;
16796;SDS011;8515;51.064;4.580;2022-09-01T00:58:02;3.13;;;1.50;;
16796;SDS011;8515;51.064;4.580;2022-09-01T01:00:31;2.28;;;1.90;;
16796;SDS011;8515;51.064;4.580;2022-09-01T01:03:05;5.95;;;1.67;;
16796;SDS011;8515;51.064;4.580;2022-09-01T01:05:35;3.17;;;1.55;;
16796;SDS011;8515;51.064;4.580;2022-09-01T01:08:05;8.23;;;2.03;;
16796;SDS011;8515;51.064;4.580;2022-09-01T01:10:37;4.32;;;1.75;;
16796;SDS011;8515;51.064;4.580;2022-09-01T01:13:08;3.22;;;1.80;;
16796;SDS011;8515;51.064;4.580;2022-09-01T01:15:37;2.03;;;1.80;;
16796;SDS011;8515;51.064;4.580;2022-09-01T01:18:09;7.28;;;1.60;;
16796;SDS011;8515;51.064;4.580;2022-09-01T01:20:37;2.20;;;1.63;;
16796;SDS011;8515;51.064;4.580;2022-09-01T01:23:24;6.05;;;1.70;;
16796;SDS011;8515;51.064;4.580;2022-09-01T01:25:58;6.38;;;1.98;;
16796;SDS011;8515;51.064;4.580;2022-09-01T01:28:26;3.97;;;1.52;;
16796;SDS011;8515;51.064;4.580;2022-09-01T01:30:56;5.38;;;1.70;;
16796;SDS011;8515;51.064;4.580;2022-09-01T01:33:28;7.40;;;1.80;;
16796;SDS011;8515;51.064;4.580;2022-09-01T01:35:57;4.93;;;1.85;;
16796;SDS011;8515;51.064;4.580;2022-09-01T01:38:25;2.20;;;1.60;;
16796;SDS011;8515;51.064;4.580;2022-09-01T01:40:54;4.75;;;1.70;;
16796;SDS011;8515;51.064;4.580;2022-09-01T01:43:22;2.47;;;1.30;;
16796;SDS011;8515;51.064;4.580;2022-09-01T01:45:52;2.45;;;1.80;;
16796;SDS011;8515;51.064;4.580;2022-09-01T01:48:23;4.97;;;1.77;;
16796;SDS011;8515;51.064;4.580;2022-09-01T01:50:52;7.32;;;1.73;;
16796;SDS011;8515;51.064;4.580;2022-09-01T01:53:24;2.72;;;1.60;;
16796;SDS011;8515;51.064;4.580;2022-09-01T01:55:52;5.50;;;1.80;;
16796;SDS011;8515;51.064;4.580;2022-09-01T01:58:20;2.25;;;1.60;;
16796;SDS011;8515;51.064;4.580;2022-09-01T02:00:50;12.50;;;2.28;;
16796;SDS011;8515;51.064;4.580;2022-09-01T02:03:19;4.28;;;1.70;;
16796;SDS011;8515;51.064;4.580;2022-09-01T02:05:50;5.90;;;1.58;;
16796;SDS011;8515;51.064;4.580;2022-09-01T02:08:18;3.05;;;1.40;;
16796;SDS011;8515;51.064;4.580;2022-09-01T02:10:47;7.57;;;2.17;;
16796;SDS011;8515;51.064;4.580;2022-09-01T02:13:16;1.77;;;1.50;;
16796;SDS011;8515;51.064;4.580;2022-09-01T02:15:49;4.75;;;1.70;;
16796;SDS011;8515;51.064;4.580;2022-09-01T02:18:18;4.20;;;1.67;;
16796;SDS011;8515;51.064;4.580;2022-09-01T02:20:48;7.20;;;1.80;;
16796;SDS011;8515;51.064;4.580;2022-09-01T02:23:16;5.13;;;1.98;;
16796;SDS011;8515;51.064;4.580;2022-09-01T02:25:49;2.90;;;2.10;;
16796;SDS011;8515;51.064;4.580;2022-09-01T02:28:19;3.10;;;1.92;;
16796;SDS011;8515;51.064;4.580;2022-09-01T02:30:49;9.00;;;1.90;;
16796;SDS011;8515;51.064;4.580;2022-09-01T02:33:19;7.05;;;2.05;;
16796;SDS011;8515;51.064;4.580;2022-09-01T02:35:47;4.85;;;2.15;;
16796;SDS011;8515;51.064;4.580;2022-09-01T02:38:16;2.17;;;1.70;;
16796;SDS011;8515;51.064;4.580;2022-09-01T02:40:45;6.00;;;2.10;;
16796;SDS011;8515;51.064;4.580;2022-09-01T02:43:13;3.10;;;1.90;;
16796;SDS011;8515;51.064;4.580;2022-09-01T02:45:44;5.05;;;2.10;;
16796;SDS011;8515;51.064;4.580;2022-09-01T02:48:17;4.97;;;2.10;;
16796;SDS011;8515;51.064;4.580;2022-09-01T02:50:46;4.55;;;1.70;;
16796;SDS011;8515;51.064;4.580;2022-09-01T02:53:14;2.75;;;1.95;;
16796;SDS011;8515;51.064;4.580;2022-09-01T02:55:42;4.85;;;2.00;;
16796;SDS011;8515;51.064;4.580;2022-09-01T02:58:09;3.88;;;2.17;;
16796;SDS011;8515;51.064;4.580;2022-09-01T03:00:40;6.45;;;2.08;;
16796;SDS011;8515;51.064;4.580;2022-09-01T03:03:07;4.55;;;2.10;;
16796;SDS011;8515;51.064;4.580;2022-09-01T03:05:38;9.52;;;2.45;;
16796;SDS011;8515;51.064;4.580;2022-09-01T03:08:06;5.97;;;2.33;;
16796;SDS011;8515;51.064;4.580;2022-09-01T03:10:36;5.55;;;2.53;;
16796;SDS011;8515;51.064;4.580;2022-09-01T03:13:06;2.88;;;1.90;;
16796;SDS011;8515;51.064;4.580;2022-09-01T03:15:34;3.60;;;2.10;;
16796;SDS011;8515;51.064;4.580;2022-09-01T03:18:03;6.60;;;2.50;;
16796;SDS011;8515;51.064;4.580;2022-09-01T03:20:32;6.00;;;2.33;;
16796;SDS011;8515;51.064;4.580;2022-09-01T03:23:02;6.32;;;2.33;;
16796;SDS011;8515;51.064;4.580;2022-09-01T03:25:33;4.38;;;2.15;;
16796;SDS011;8515;51.064;4.580;2022-09-01T03:28:01;3.47;;;2.40;;
16796;SDS011;8515;51.064;4.580;2022-09-01T03:30:29;4.88;;;2.13;;
16796;SDS011;8515;51.064;4.580;2022-09-01T03:32:57;4.28;;;2.28;;
16796;SDS011;8515;51.064;4.580;2022-09-01T03:35:26;3.80;;;2.20;;
16796;SDS011;8515;51.064;4.580;2022-09-01T03:37:56;5.75;;;2.50;;
16796;SDS011;8515;51.064;4.580;2022-09-01T03:40:25;4.25;;;2.30;;
16796;SDS011;8515;51.064;4.580;2022-09-01T03:42:54;5.18;;;2.35;;
16796;SDS011;8515;51.064;4.580;2022-09-01T03:45:21;3.72;;;2.30;;
16796;SDS011;8515;51.064;4.580;2022-09-01T03:47:49;6.22;;;2.40;;
16796;SDS011;8515;51.064;4.580;2022-09-01T03:50:19;4.60;;;2.50;;
16796;SDS011;8515;51.064;4.580;2022-09-01T03:52:53;6.85;;;2.55;;
16796;SDS011;8515;51.064;4.580;2022-09-01T03:55:28;7.18;;;2.90;;
16796;SDS011;8515;51.064;4.580;2022-09-01T03:57:57;4.65;;;2.60;;
16796;SDS011;8515;51.064;4.580;2022-09-01T04:00:26;5.75;;;2.72;;
16796;SDS011;8515;51.064;4.580;2022-09-01T04:02:57;15.65;;;2.95;;
16796;SDS011;8515;51.064;4.580;2022-09-01T04:05:25;5.43;;;2.40;;
16796;SDS011;8515;51.064;4.580;2022-09-01T04:07:54;11.13;;;2.83;;
16796;SDS011;8515;51.064;4.580;2022-09-01T04:10:22;15.80;;;3.05;;
16796;SDS011;8515;51.064;4.580;2022-09-01T04:12:51;7.88;;;2.88;;
16796;SDS011;8515;51.064;4.580;2022-09-01T04:15:20;14.95;;;2.70;;
16796;SDS011;8515;51.064;4.580;2022-09-01T04:17:47;8.15;;;2.90;;
16796;SDS011;8515;51.064;4.580;2022-09-01T04:20:31;6.72;;;3.00;;
16796;SDS011;8515;51.064;4.580;2022-09-01T04:23:11;7.93;;;3.00;;
16796;SDS011;8515;51.064;4.580;2022-09-01T04:25:44;7.90;;;2.80;;
16796;SDS011;8515;51.064;4.580;2022-09-01T04:28:14;5.20;;;2.83;;
16796;SDS011;8515;51.064;4.580;2022-09-01T04:30:47;11.70;;;3.35;;
16796;SDS011;8515;51.064;4.580;2022-09-01T04:33:16;6.03;;;3.20;;
16796;SDS011;8515;51.064;4.580;2022-09-01T04:35:44;6.57;;;3.08;;
16796;SDS011;8515;51.064;4.580;2022-09-01T04:38:11;6.47;;;3.20;;
16796;SDS011;8515;51.064;4.580;2022-09-01T04:40:40;6.18;;;3.10;;
16796;SDS011;8515;51.064;4.580;2022-09-01T04:43:08;5.00;;;3.03;;
16796;SDS011;8515;51.064;4.580;2022-09-01T04:45:37;6.30;;;3.35;;
16796;SDS011;8515;51.064;4.580;2022-09-01T04:48:05;10.25;;;3.25;;
16796;SDS011;8515;51.064;4.580;2022-09-01T04:50:32;12.63;;;3.30;;
16796;SDS011;8515;51.064;4.580;2022-09-01T04:53:02;6.25;;;3.25;;
16796;SDS011;8515;51.064;4.580;2022-09-01T04:55:31;7.45;;;3.22;;
16796;SDS011;8515;51.064;4.580;2022-09-01T04:58:00;8.02;;;3.78;;
16796;SDS011;8515;51.064;4.580;2022-09-01T05:00:28;10.75;;;3.90;;
16796;SDS011;8515;51.064;4.580;2022-09-01T05:02:58;14.25;;;4.15;;
16796;SDS011;8515;51.064;4.580;2022-09-01T05:05:29;8.27;;;3.80;;
16796;SDS011;8515;51.064;4.580;2022-09-01T05:08:03;7.90;;;3.63;;
16796;SDS011;8515;51.064;4.580;2022-09-01T05:10:32;15.43;;;4.43;;
16796;SDS011;8515;51.064;4.580;2022-09-01T05:13:00;16.77;;;4.80;;
16796;SDS011;8515;51.064;4.580;2022-09-01T05:15:34;9.18;;;4.20;;
16796;SDS011;8515;51.064;4.580;2022-09-01T05:18:03;24.85;;;5.47;;
16796;SDS011;8515;51.064;4.580;2022-09-01T05:20:35;9.73;;;4.65;;
16796;SDS011;8515;51.064;4.580;2022-09-01T05:23:07;11.18;;;4.38;;
16796;SDS011;8515;51.064;4.580;2022-09-01T05:25:37;14.95;;;4.68;;
16796;SDS011;8515;51.064;4.580;2022-09-01T05:28:06;14.00;;;4.97;;
16796;SDS011;8515;51.064;4.580;2022-09-01T05:30:37;17.00;;;5.40;;
16796;SDS011;8515;51.064;4.580;2022-09-01T05:33:06;11.23;;;5.05;;
16796;SDS011;8515;51.064;4.580;2022-09-01T05:35:35;17.35;;;5.60;;
16796;SDS011;8515;51.064;4.580;2022-09-01T05:38:05;14.40;;;5.75;;
16796;SDS011;8515;51.064;4.580;2022-09-01T05:40:38;12.90;;;5.63;;
16796;SDS011;8515;51.064;4.580;2022-09-01T05:43:06;13.57;;;5.82;;
16796;SDS011;8515;51.064;4.580;2022-09-01T05:45:37;17.02;;;5.88;;
16796;SDS011;8515;51.064;4.580;2022-09-01T05:48:09;17.05;;;4.97;;
16796;SDS011;8515;51.064;4.580;2022-09-01T05:50:39;15.15;;;6.10;;
16796;SDS011;8515;51.064;4.580;2022-09-01T05:53:08;14.98;;;6.50;;
16796;SDS011;8515;51.064;4.580;2022-09-01T05:55:40;16.48;;;7.07;;
16796;SDS011;8515;51.064;4.580;2022-09-01T05:58:09;20.40;;;7.18;;
16796;SDS011;8515;51.064;4.580;2022-09-01T06:00:38;28.42;;;8.45;;
16796;SDS011;8515;51.064;4.580;2022-09-01T06:03:07;16.33;;;7.25;;
16796;SDS011;8515;51.064;4.580;2022-09-01T06:05:36;17.15;;;7.63;;
16796;SDS011;8515;51.064;4.580;2022-09-01T06:08:04;15.82;;;8.30;;
16796;SDS011;8515;51.064;4.580;2022-09-01T06:10:35;15.63;;;9.15;;
16796;SDS011;8515;51.064;4.580;2022-09-01T06:13:04;20.55;;;9.35;;
16796;SDS011;8515;51.064;4.580;2022-09-01T06:15:31;28.10;;;10.45;;
16796;SDS011;8515;51.064;4.580;2022-09-01T06:18:03;31.27;;;9.88;;
16796;SDS011;8515;51.064;4.580;2022-09-01T06:20:31;19.42;;;9.32;;
16796;SDS011;8515;51.064;4.580;2022-09-01T06:23:00;20.40;;;9.48;;
16796;SDS011;8515;51.064;4.580;2022-09-01T06:25:27;22.88;;;9.57;;
16796;SDS011;8515;51.064;4.580;2022-09-01T06:27:55;23.55;;;8.02;;
16796;SDS011;8515;51.064;4.580;2022-09-01T06:30:22;22.45;;;7.32;;
16796;SDS011;8515;51.064;4.580;2022-09-01T06:32:50;16.38;;;7.60;;
16796;SDS011;8515;51.064;4.580;2022-09-01T06:35:18;22.98;;;7.80;;
16796;SDS011;8515;51.064;4.580;2022-09-01T06:37:46;21.90;;;8.68;;
16796;SDS011;8515;51.064;4.580;2022-09-01T06:40:15;18.63;;;7.85;;
16796;SDS011;8515;51.064;4.580;2022-09-01T06:42:43;24.48;;;7.95;;
16796;SDS011;8515;51.064;4.580;2022-09-01T06:45:11;18.52;;;8.10;;
16796;SDS011;8515;51.064;4.580;2022-09-01T06:47:39;26.00;;;8.57;;
16796;SDS011;8515;51.064;4.580;2022-09-01T06:50:08;22.85;;;7.68;;
16796;SDS011;8515;51.064;4.580;2022-09-01T06:52:35;23.00;;;7.70;;
16796;SDS011;8515;51.064;4.580;2022-09-01T06:55:04;19.83;;;8.07;;
16796;SDS011;8515;51.064;4.580;2022-09-01T06:57:33;23.83;;;8.25;;
16796;SDS011;8515;51.064;4.580;2022-09-01T07:00:02;23.08;;;8.30;;
16796;SDS011;8515;51.064;4.580;2022-09-01T07:02:31;20.67;;;8.68;;
16796;SDS011;8515;51.064;4.580;2022-09-01T07:04:58;24.23;;;8.48;;
16796;SDS011;8515;51.064;4.580;2022-09-01T07:07:26;19.20;;;7.78;;
16796;SDS011;8515;51.064;4.580;2022-09-01T07:09:58;24.88;;;8.90;;
16796;SDS011;8515;51.064;4.580;2022-09-01T07:12:25;21.38;;;8.68;;
16796;SDS011;8515;51.064;4.580;2022-09-01T07:14:53;23.83;;;7.85;;
16796;SDS011;8515;51.064;4.580;2022-09-01T07:17:21;21.63;;;7.82;;
16796;SDS011;8515;51.064;4.580;2022-09-01T07:19:49;20.27;;;7.63;;
16796;SDS011;8515;51.064;4.580;2022-09-01T07:22:17;16.98;;;7.82;;
16796;SDS011;8515;51.064;4.580;2022-09-01T07:24:45;20.65;;;7.93;;
16796;SDS011;8515;51.064;4.580;2022-09-01T07:27:12;24.02;;;8.40;;
16796;SDS011;8515;51.064;4.580;2022-09-01T07:29:39;19.15;;;9.07;;
16796;SDS011;8515;51.064;4.580;2022-09-01T07:32:07;21.38;;;8.80;;
16796;SDS011;8515;51.064;4.580;2022-09-01T07:34:35;22.42;;;8.70;;
16796;SDS011;8515;51.064;4.580;2022-09-01T07:37:03;23.05;;;8.93;;
16796;SDS011;8515;51.064;4.580;2022-09-01T07:39:30;18.35;;;9.40;;
16796;SDS011;8515;51.064;4.580;2022-09-01T07:41:57;25.63;;;9.65;;
16796;SDS011;8515;51.064;4.580;2022-09-01T07:44:24;25.08;;;8.80;;
16796;SDS011;8515;51.064;4.580;2022-09-01T07:46:51;23.50;;;9.27;;
16796;SDS011;8515;51.064;4.580;2022-09-01T07:49:19;21.88;;;8.85;;
16796;SDS011;8515;51.064;4.580;2022-09-01T07:51:46;23.58;;;8.30;;
16796;SDS011;8515;51.064;4.580;2022-09-01T07:54:15;20.80;;;8.30;;
16796;SDS011;8515;51.064;4.580;2022-09-01T07:56:42;25.67;;;8.68;;
16796;SDS011;8515;51.064;4.580;2022-09-01T07:59:09;15.77;;;7.70;;
16796;SDS011;8515;51.064;4.580;2022-09-01T08:01:36;22.48;;;7.00;;
16796;SDS011;8515;51.064;4.580;2022-09-01T08:04:03;14.93;;;6.47;;
16796;SDS011;8515;51.064;4.580;2022-09-01T08:06:31;20.95;;;6.35;;
16796;SDS011;8515;51.064;4.580;2022-09-01T08:09:00;19.25;;;6.15;;
16796;SDS011;8515;51.064;4.580;2022-09-01T08:11:28;17.25;;;6.10;;
16796;SDS011;8515;51.064;4.580;2022-09-01T08:13:56;14.68;;;4.50;;
16796;SDS011;8515;51.064;4.580;2022-09-01T08:16:24;9.85;;;4.75;;
16796;SDS011;8515;51.064;4.580;2022-09-01T08:18:52;13.02;;;4.55;;
16796;SDS011;8515;51.064;4.580;2022-09-01T08:21:19;16.83;;;4.28;;
16796;SDS011;8515;51.064;4.580;2022-09-01T08:23:49;8.65;;;4.15;;
16796;SDS011;8515;51.064;4.580;2022-09-01T08:26:17;11.52;;;3.72;;
16796;SDS011;8515;51.064;4.580;2022-09-01T08:28:46;10.93;;;3.97;;
16796;SDS011;8515;51.064;4.580;2022-09-01T08:31:14;11.63;;;3.40;;
16796;SDS011;8515;51.064;4.580;2022-09-01T08:33:43;11.30;;;3.70;;
16796;SDS011;8515;51.064;4.580;2022-09-01T08:36:12;8.00;;;3.50;;
16796;SDS011;8515;51.064;4.580;2022-09-01T08:38:40;9.40;;;3.80;;
16796;SDS011;8515;51.064;4.580;2022-09-01T08:41:13;8.65;;;4.13;;
16796;SDS011;8515;51.064;4.580;2022-09-01T08:43:50;7.15;;;3.47;;
16796;SDS011;8515;51.064;4.580;2022-09-01T08:46:26;9.63;;;3.72;;
16796;SDS011;8515;51.064;4.580;2022-09-01T08:48:56;11.82;;;3.92;;
16796;SDS011;8515;51.064;4.580;2022-09-01T08:51:26;7.75;;;3.45;;
16796;SDS011;8515;51.064;4.580;2022-09-01T08:54:01;11.05;;;3.70;;
16796;SDS011;8515;51.064;4.580;2022-09-01T08:56:33;6.15;;;3.03;;
16796;SDS011;8515;51.064;4.580;2022-09-01T08:59:01;8.82;;;3.40;;
16796;SDS011;8515;51.064;4.580;2022-09-01T09:01:29;9.63;;;3.22;;
16796;SDS011;8515;51.064;4.580;2022-09-01T09:04:05;12.80;;;3.67;;
16796;SDS011;8515;51.064;4.580;2022-09-01T09:06:41;9.73;;;3.00;;
16796;SDS011;8515;51.064;4.580;2022-09-01T09:09:15;9.32;;;2.90;;
16796;SDS011;8515;51.064;4.580;2022-09-01T09:14:41;7.97;;;2.60;;
16796;SDS011;8515;51.064;4.580;2022-09-01T09:17:16;11.95;;;3.00;;
16796;SDS011;8515;51.064;4.580;2022-09-01T09:19:46;5.47;;;2.70;;
16796;SDS011;8515;51.064;4.580;2022-09-01T09:22:14;6.07;;;2.55;;
16796;SDS011;8515;51.064;4.580;2022-09-01T09:24:43;5.25;;;2.40;;
16796;SDS011;8515;51.064;4.580;2022-09-01T09:27:20;2.65;;;2.25;;
16796;SDS011;8515;51.064;4.580;2022-09-01T09:29:48;4.32;;;2.33;;
16796;SDS011;8515;51.064;4.580;2022-09-01T09:32:17;3.78;;;2.17;;
16796;SDS011;8515;51.064;4.580;2022-09-01T09:34:46;6.03;;;2.00;;
16796;SDS011;8515;51.064;4.580;2022-09-01T09:37:19;5.78;;;1.95;;
16796;SDS011;8515;51.064;4.580;2022-09-01T09:40:01;4.15;;;2.03;;
16796;SDS011;8515;51.064;4.580;2022-09-01T09:42:33;3.95;;;2.15;;
16796;SDS011;8515;51.064;4.580;2022-09-01T09:45:03;2.03;;;1.80;;
16796;SDS011;8515;51.064;4.580;2022-09-01T09:47:33;7.35;;;2.50;;
16796;SDS011;8515;51.064;4.580;2022-09-01T09:50:13;6.00;;;2.30;;
16796;SDS011;8515;51.064;4.580;2022-09-01T09:52:46;8.60;;;1.98;;
16796;SDS011;8515;51.064;4.580;2022-09-01T09:55:19;8.02;;;2.20;;
16796;SDS011;8515;51.064;4.580;2022-09-01T09:57:53;5.00;;;2.05;;
16796;SDS011;8515;51.064;4.580;2022-09-01T10:00:24;4.32;;;1.70;;
16796;SDS011;8515;51.064;4.580;2022-09-01T10:02:54;3.55;;;1.80;;
16796;SDS011;8515;51.064;4.580;2022-09-01T10:05:28;10.15;;;2.10;;
16796;SDS011;8515;51.064;4.580;2022-09-01T10:08:04;3.42;;;1.80;;
16796;SDS011;8515;51.064;4.580;2022-09-01T10:10:38;2.92;;;1.98;;
16796;SDS011;8515;51.064;4.580;2022-09-01T10:13:11;5.68;;;1.80;;
16796;SDS011;8515;51.064;4.580;2022-09-01T10:15:40;5.63;;;1.88;;
16796;SDS011;8515;51.064;4.580;2022-09-01T10:18:14;7.72;;;2.03;;
16796;SDS011;8515;51.064;4.580;2022-09-01T10:20:45;5.22;;;1.70;;
16796;SDS011;8515;51.064;4.580;2022-09-01T10:23:19;6.10;;;1.90;;
16796;SDS011;8515;51.064;4.580;2022-09-01T10:25:46;3.80;;;1.75;;
16796;SDS011;8515;51.064;4.580;2022-09-01T10:28:20;7.00;;;2.10;;
16796;SDS011;8515;51.064;4.580;2022-09-01T10:30:50;5.65;;;1.98;;
16796;SDS011;8515;51.064;4.580;2022-09-01T10:33:19;5.80;;;2.95;;
16796;SDS011;8515;51.064;4.580;2022-09-01T10:35:47;4.50;;;2.03;;
16796;SDS011;8515;51.064;4.580;2022-09-01T10:38:17;5.43;;;1.80;;
16796;SDS011;8515;51.064;4.580;2022-09-01T10:40:46;3.83;;;2.00;;
16796;SDS011;8515;51.064;4.580;2022-09-01T10:43:48;4.68;;;1.83;;
16796;SDS011;8515;51.064;4.580;2022-09-01T10:55:18;5.40;;;2.03;;
16796;SDS011;8515;51.064;4.580;2022-09-01T10:57:49;8.65;;;1.90;;
16796;SDS011;8515;51.064;4.580;2022-09-01T11:06:02;8.40;;;1.85;;
16796;SDS011;8515;51.064;4.580;2022-09-01T11:08:40;2.03;;;1.52;;
16796;SDS011;8515;51.064;4.580;2022-09-01T11:11:13;4.93;;;1.73;;
16796;SDS011;8515;51.064;4.580;2022-09-01T11:13:49;7.10;;;1.60;;
16796;SDS011;8515;51.064;4.580;2022-09-01T11:19:26;4.85;;;1.58;;
16796;SDS011;8515;51.064;4.580;2022-09-01T11:22:06;5.82;;;1.90;;
16796;SDS011;8515;51.064;4.580;2022-09-01T11:25:05;3.15;;;1.95;;
16796;SDS011;8515;51.064;4.580;2022-09-01T11:30:22;3.30;;;1.80;;
16796;SDS011;8515;51.064;4.580;2022-09-01T11:33:01;2.15;;;1.60;;
16796;SDS011;8515;51.064;4.580;2022-09-01T11:35:41;4.90;;;1.85;;
16796;SDS011;8515;51.064;4.580;2022-09-01T11:38:11;4.72;;;2.05;;
16796;SDS011;8515;51.064;4.580;2022-09-01T11:40:41;8.00;;;1.70;;
16796;SDS011;8515;51.064;4.580;2022-09-01T11:43:08;6.07;;;1.80;;
16796;SDS011;8515;51.064;4.580;2022-09-01T11:45:44;3.60;;;1.90;;
16796;SDS011;8515;51.064;4.580;2022-09-01T11:48:24;2.38;;;1.83;;
16796;SDS011;8515;51.064;4.580;2022-09-01T11:50:56;5.85;;;1.83;;
16796;SDS011;8515;51.064;4.580;2022-09-01T11:53:25;1.73;;;1.63;;
16796;SDS011;8515;51.064;4.580;2022-09-01T11:55:53;3.40;;;1.75;;
16796;SDS011;8515;51.064;4.580;2022-09-01T11:58:29;7.10;;;1.73;;
16796;SDS011;8515;51.064;4.580;2022-09-01T12:01:10;4.88;;;1.90;;
16796;SDS011;8515;51.064;4.580;2022-09-01T12:03:41;4.90;;;1.88;;
16796;SDS011;8515;51.064;4.580;2022-09-01T12:06:09;7.40;;;1.90;;
16796;SDS011;8515;51.064;4.580;2022-09-01T12:08:38;1.58;;;1.48;;
16796;SDS011;8515;51.064;4.580;2022-09-01T12:11:08;9.25;;;2.00;;
16796;SDS011;8515;51.064;4.580;2022-09-01T12:13:37;5.45;;;1.90;;
16796;SDS011;8515;51.064;4.580;2022-09-01T12:16:06;3.50;;;2.03;;
16796;SDS011;8515;51.064;4.580;2022-09-01T12:18:35;4.05;;;2.08;;
16796;SDS011;8515;51.064;4.580;2022-09-01T12:21:15;4.57;;;2.22;;
16796;SDS011;8515;51.064;4.580;2022-09-01T12:23:45;4.72;;;1.90;;
16796;SDS011;8515;51.064;4.580;2022-09-01T12:26:13;8.38;;;2.10;;
16796;SDS011;8515;51.064;4.580;2022-09-01T12:28:43;7.32;;;2.00;;
16796;SDS011;8515;51.064;4.580;2022-09-01T12:31:14;5.85;;;2.10;;
16796;SDS011;8515;51.064;4.580;2022-09-01T12:33:43;4.15;;;2.33;;
16796;SDS011;8515;51.064;4.580;2022-09-01T12:39:18;5.07;;;2.10;;
16796;SDS011;8515;51.064;4.580;2022-09-01T12:41:59;2.30;;;2.10;;
16796;SDS011;8515;51.064;4.580;2022-09-01T12:44:29;4.45;;;2.20;;
16796;SDS011;8515;51.064;4.580;2022-09-01T12:46:59;5.80;;;2.03;;
16796;SDS011;8515;51.064;4.580;2022-09-01T12:49:35;5.28;;;1.77;;
16796;SDS011;8515;51.064;4.580;2022-09-01T12:52:06;3.22;;;1.95;;
16796;SDS011;8515;51.064;4.580;2022-09-01T12:54:44;3.95;;;2.10;;
16796;SDS011;8515;51.064;4.580;2022-09-01T12:57:20;11.75;;;2.22;;
16796;SDS011;8515;51.064;4.580;2022-09-01T13:00:04;4.03;;;2.03;;
16796;SDS011;8515;51.064;4.580;2022-09-01T13:02:41;7.68;;;2.10;;
16796;SDS011;8515;51.064;4.580;2022-09-01T13:05:17;6.40;;;2.22;;
16796;SDS011;8515;51.064;4.580;2022-09-01T13:07:47;3.95;;;2.10;;
16796;SDS011;8515;51.064;4.580;2022-09-01T13:10:14;6.07;;;2.08;;
16796;SDS011;8515;51.064;4.580;2022-09-01T13:12:41;6.10;;;2.35;;
16796;SDS011;8515;51.064;4.580;2022-09-01T13:15:11;4.25;;;2.15;;
16796;SDS011;8515;51.064;4.580;2022-09-01T13:17:38;15.27;;;2.13;;
16796;SDS011;8515;51.064;4.580;2022-09-01T13:20:06;5.60;;;1.90;;
16796;SDS011;8515;51.064;4.580;2022-09-01T13:22:33;2.92;;;2.30;;
16796;SDS011;8515;51.064;4.580;2022-09-01T13:25:03;4.43;;;1.88;;
16796;SDS011;8515;51.064;4.580;2022-09-01T13:27:30;4.80;;;1.80;;
16796;SDS011;8515;51.064;4.580;2022-09-01T13:29:57;2.15;;;1.60;;
16796;SDS011;8515;51.064;4.580;2022-09-01T13:32:24;4.20;;;1.83;;
16796;SDS011;8515;51.064;4.580;2022-09-01T13:34:51;2.92;;;2.22;;
16796;SDS011;8515;51.064;4.580;2022-09-01T13:37:19;4.57;;;2.33;;
16796;SDS011;8515;51.064;4.580;2022-09-01T13:39:47;3.15;;;1.80;;
16796;SDS011;8515;51.064;4.580;2022-09-01T13:42:16;4.65;;;1.55;;
16796;SDS011;8515;51.064;4.580;2022-09-01T13:44:43;3.22;;;1.80;;
16796;SDS011;8515;51.064;4.580;2022-09-01T13:47:11;3.55;;;1.70;;
16796;SDS011;8515;51.064;4.580;2022-09-01T13:49:38;4.13;;;1.75;;
16796;SDS011;8515;51.064;4.580;2022-09-01T13:52:05;4.50;;;1.60;;
16796;SDS011;8515;51.064;4.580;2022-09-01T13:54:32;5.70;;;1.48;;
16796;SDS011;8515;51.064;4.580;2022-09-01T13:56:59;5.97;;;1.80;;
16796;SDS011;8515;51.064;4.580;2022-09-01T13:59:27;3.53;;;1.63;;
16796;SDS011;8515;51.064;4.580;2022-09-01T14:01:56;1.90;;;1.42;;
16796;SDS011;8515;51.064;4.580;2022-09-01T14:04:23;6.22;;;2.00;;
16796;SDS011;8515;51.064;4.580;2022-09-01T14:06:50;2.60;;;1.70;;
16796;SDS011;8515;51.064;4.580;2022-09-01T14:09:17;7.55;;;2.05;;
16796;SDS011;8515;51.064;4.580;2022-09-01T14:11:44;2.88;;;1.60;;
16796;SDS011;8515;51.064;4.580;2022-09-01T14:14:13;4.30;;;1.52;;
16796;SDS011;8515;51.064;4.580;2022-09-01T14:16:41;4.10;;;1.77;;
16796;SDS011;8515;51.064;4.580;2022-09-01T14:19:10;4.22;;;1.27;;
16796;SDS011;8515;51.064;4.580;2022-09-01T14:21:37;4.05;;;1.30;;
16796;SDS011;8515;51.064;4.580;2022-09-01T14:24:04;3.15;;;1.50;;
16796;SDS011;8515;51.064;4.580;2022-09-01T14:26:32;3.70;;;1.65;;
16796;SDS011;8515;51.064;4.580;2022-09-01T14:28:59;4.78;;;1.58;;
16796;SDS011;8515;51.064;4.580;2022-09-01T14:31:27;15.05;;;1.85;;
16796;SDS011;8515;51.064;4.580;2022-09-01T14:33:57;6.03;;;1.85;;
16796;SDS011;8515;51.064;4.580;2022-09-01T14:36:24;2.50;;;1.60;;
16796;SDS011;8515;51.064;4.580;2022-09-01T14:38:53;12.88;;;1.73;;
16796;SDS011;8515;51.064;4.580;2022-09-01T14:41:21;2.05;;;1.38;;
16796;SDS011;8515;51.064;4.580;2022-09-01T14:43:49;4.07;;;1.77;;
16796;SDS011;8515;51.064;4.580;2022-09-01T14:46:16;5.15;;;1.40;;
16796;SDS011;8515;51.064;4.580;2022-09-01T14:48:44;3.55;;;1.30;;
16796;SDS011;8515;51.064;4.580;2022-09-01T14:51:19;6.22;;;1.70;;
16796;SDS011;8515;51.064;4.580;2022-09-01T14:53:48;4.65;;;1.50;;
16796;SDS011;8515;51.064;4.580;2022-09-01T14:56:15;3.13;;;1.60;;
16796;SDS011;8515;51.064;4.580;2022-09-01T14:58:43;5.25;;;1.40;;
16796;SDS011;8515;51.064;4.580;2022-09-01T15:01:11;15.50;;;2.72;;
16796;SDS011;8515;51.064;4.580;2022-09-01T15:03:40;7.65;;;1.60;;
16796;SDS011;8515;51.064;4.580;2022-09-01T15:06:10;3.63;;;1.50;;
16796;SDS011;8515;51.064;4.580;2022-09-01T15:08:39;7.95;;;1.52;;
16796;SDS011;8515;51.064;4.580;2022-09-01T15:11:07;4.38;;;1.60;;
16796;SDS011;8515;51.064;4.580;2022-09-01T15:13:35;5.28;;;1.63;;
16796;SDS011;8515;51.064;4.580;2022-09-01T15:16:03;3.20;;;1.58;;
16796;SDS011;8515;51.064;4.580;2022-09-01T15:18:30;6.60;;;1.73;;
16796;SDS011;8515;51.064;4.580;2022-09-01T15:20:57;5.10;;;1.65;;
16796;SDS011;8515;51.064;4.580;2022-09-01T15:23:24;7.55;;;1.45;;
16796;SDS011;8515;51.064;4.580;2022-09-01T15:25:53;3.03;;;1.55;;
16796;SDS011;8515;51.064;4.580;2022-09-01T15:28:22;4.90;;;1.52;;
16796;SDS011;8515;51.064;4.580;2022-09-01T15:30:49;5.55;;;1.45;;
16796;SDS011;8515;51.064;4.580;2022-09-01T15:33:16;2.63;;;1.38;;
16796;SDS011;8515;51.064;4.580;2022-09-01T15:35:44;13.27;;;2.00;;
16796;SDS011;8515;51.064;4.580;2022-09-01T15:38:11;8.57;;;1.42;;
16796;SDS011;8515;51.064;4.580;2022-09-01T15:40:39;3.67;;;1.60;;